Time;durP1;ratioP1;P1;durP2;ratioP2;P2;SDS_P1;SDS_P2;PMS_P1;PMS_P2;Temp;Humidity;BMP_temperature;BMP_pressure;BME280_temperature;BME280_humidity;BME280_pressure;Samples;Min_cycle;Max_cycle;Signal;HPM_P1;HPM_P2
2021/10/03 00:02:27;;;;;;;6.50;4.97;;;18.60;99.90;;;;;;5071979;28;20061;-51
2021/10/03 00:04:54;;;;;;;5.63;4.75;;;18.60;99.90;;;;;;5072292;28;20039;-51
2021/10/03 00:07:21;;;;;;;7.15;4.70;;;18.60;99.90;;;;;;5071403;28;20101;-54
2021/10/03 00:09:48;;;;;;;6.78;4.93;;;18.60;99.90;;;;;;5072033;28;20025;-49
2021/10/03 00:12:14;;;;;;;6.75;4.90;;;18.60;99.90;;;;;;5071907;28;20033;-48
2021/10/03 00:14:39;;;;;;;5.45;4.65;;;18.60;99.90;;;;;;5071850;28;20474;-53
2021/10/03 00:17:05;;;;;;;5.80;5.00;;;18.60;99.90;;;;;;5071724;28;20036;-48
2021/10/03 00:19:30;;;;;;;4.95;4.55;;;18.60;99.90;;;;;;5069412;28;20039;-48
2021/10/03 00:21:57;;;;;;;4.78;4.28;;;18.60;99.90;;;;;;5071702;28;20077;-47
2021/10/03 00:24:23;;;;;;;7.43;4.93;;;18.60;99.90;;;;;;5071381;28;20017;-48
2021/10/03 00:26:49;;;;;;;7.97;4.88;;;18.60;99.90;;;;;;5071372;28;20155;-47
2021/10/03 00:29:15;;;;;;;6.50;4.45;;;18.50;99.90;;;;;;5070943;28;20282;-47
2021/10/03 00:31:41;;;;;;;4.90;4.40;;;18.50;99.90;;;;;;5071315;28;20024;-49
2021/10/03 00:34:06;;;;;;;7.05;4.50;;;18.50;99.90;;;;;;5071602;28;20025;-51
2021/10/03 00:36:32;;;;;;;5.70;5.10;;;18.50;99.90;;;;;;5053816;28;20032;-54
2021/10/03 00:38:57;;;;;;;4.82;4.30;;;18.50;99.90;;;;;;5070932;28;20024;-48
2021/10/03 00:41:23;;;;;;;4.82;4.15;;;18.50;99.90;;;;;;5071471;28;20074;-49
2021/10/03 00:43:49;;;;;;;8.90;4.75;;;18.50;99.90;;;;;;5071449;28;20041;-51
2021/10/03 00:46:15;;;;;;;7.03;4.75;;;18.50;99.90;;;;;;5071463;28;20082;-53
2021/10/03 00:48:40;;;;;;;4.65;4.25;;;18.50;99.90;;;;;;5071092;28;20032;-50
2021/10/03 00:51:06;;;;;;;4.47;4.07;;;18.50;99.90;;;;;;5071482;28;20029;-55
2021/10/03 00:53:31;;;;;;;5.63;4.43;;;18.70;99.90;;;;;;5053438;28;20024;-48
2021/10/03 00:55:57;;;;;;;6.18;4.55;;;18.70;99.80;;;;;;5071254;28;20096;-51
2021/10/03 00:58:23;;;;;;;5.13;4.03;;;18.80;99.70;;;;;;5070378;28;20029;-53
2021/10/03 01:00:49;;;;;;;7.70;4.50;;;18.80;99.50;;;;;;5053073;28;20021;-51
2021/10/03 01:03:15;;;;;;;7.15;4.57;;;18.80;99.40;;;;;;5070928;28;20032;-50
2021/10/03 01:05:41;;;;;;;6.63;4.03;;;18.90;99.30;;;;;;5070948;28;20024;-55
2021/10/03 01:08:06;;;;;;;5.25;4.38;;;18.90;99.30;;;;;;5070509;28;20032;-54
2021/10/03 01:10:32;;;;;;;5.75;4.78;;;18.90;99.20;;;;;;5070812;28;20028;-50
2021/10/03 01:13:05;;;;;;;6.03;4.80;;;18.90;99.20;;;;;;5052822;28;20145;-49
2021/10/03 01:15:33;;;;;;;6.82;3.45;;;18.90;99.20;;;;;;5070619;28;20028;-55
2021/10/03 01:17:58;;;;;;;6.63;4.38;;;18.90;99.10;;;;;;5070087;28;20035;-51
2021/10/03 01:20:24;;;;;;;4.32;3.90;;;18.90;99.10;;;;;;5069653;28;20036;-51
2021/10/03 01:22:51;;;;;;;6.95;4.05;;;18.90;99.10;;;;;;5070519;28;20036;-49
2021/10/03 01:25:18;;;;;;;5.05;4.20;;;18.90;99.20;;;;;;5070569;28;20085;-52
2021/10/03 01:27:43;;;;;;;9.75;4.80;;;18.80;99.30;;;;;;5051977;28;20052;-52
2021/10/03 01:30:12;;;;;;;5.63;3.90;;;18.80;99.30;;;;;;5070685;28;20056;-49
2021/10/03 01:32:39;;;;;;;8.77;4.40;;;18.80;99.30;;;;;;5070704;28;20052;-50
2021/10/03 01:35:05;;;;;;;6.47;4.20;;;18.80;99.30;;;;;;5070664;28;20095;-47
2021/10/03 01:37:33;;;;;;;6.80;4.35;;;18.80;99.50;;;;;;5069723;28;20521;-49
2021/10/03 01:40:01;;;;;;;6.63;4.38;;;18.80;99.50;;;;;;5070571;28;20024;-45
2021/10/03 01:42:26;;;;;;;6.20;4.72;;;18.70;99.60;;;;;;5052271;28;20032;-48
2021/10/03 01:44:52;;;;;;;5.85;4.55;;;18.70;99.50;;;;;;5070538;28;20074;-48
2021/10/03 01:48:05;;;;;;;6.72;4.53;;;18.70;99.40;;;;;;5069684;28;20025;-48
2021/10/03 01:50:33;;;;;;;5.25;4.47;;;18.70;99.50;;;;;;5067754;28;20028;-49
2021/10/03 01:52:59;;;;;;;5.38;4.88;;;18.70;99.30;;;;;;5070213;28;20025;-49
2021/10/03 01:55:24;;;;;;;5.00;4.20;;;18.70;99.30;;;;;;5070378;28;20032;-50
2021/10/03 01:57:50;;;;;;;5.05;4.50;;;18.70;99.20;;;;;;5069667;28;20031;-50
2021/10/03 02:00:16;;;;;;;4.85;4.22;;;18.80;99.10;;;;;;5070565;28;20060;-55
2021/10/03 02:02:41;;;;;;;5.95;4.65;;;18.80;99.00;;;;;;5072510;28;20025;-49
2021/10/03 02:05:07;;;;;;;5.03;4.25;;;18.80;99.00;;;;;;5075400;28;20432;-49
2021/10/03 02:07:34;;;;;;;7.57;4.70;;;18.80;98.90;;;;;;5073260;28;20626;-50
2021/10/03 02:09:59;;;;;;;4.28;3.88;;;18.80;98.90;;;;;;5070411;28;20377;-52
2021/10/03 02:12:25;;;;;;;7.90;4.20;;;18.80;98.50;;;;;;5052430;28;20120;-47
2021/10/03 02:14:51;;;;;;;4.00;3.60;;;18.90;98.30;;;;;;5070120;28;20060;-49
2021/10/03 02:17:16;;;;;;;4.07;3.75;;;18.90;98.00;;;;;;5069700;28;20029;-53
2021/10/03 02:19:42;;;;;;;7.30;4.03;;;19.10;97.70;;;;;;5051098;28;20029;-51
2021/10/03 02:22:08;;;;;;;3.90;3.20;;;19.10;97.50;;;;;;5070125;28;20036;-52
2021/10/03 02:24:34;;;;;;;4.13;3.72;;;19.20;97.40;;;;;;5070282;28;20016;-50
2021/10/03 02:27:00;;;;;;;5.68;3.30;;;19.20;97.30;;;;;;5070273;28;20029;-46
2021/10/03 02:29:26;;;;;;;3.90;3.60;;;19.30;97.00;;;;;;5069352;28;20021;-50
2021/10/03 02:31:54;;;;;;;3.58;3.28;;;19.30;97.00;;;;;;5070004;28;20029;-50
2021/10/03 02:34:20;;;;;;;4.22;3.30;;;19.30;96.90;;;;;;5070035;28;20016;-49
2021/10/03 02:36:46;;;;;;;5.10;3.60;;;19.30;97.10;;;;;;5070008;28;20033;-51
2021/10/03 02:39:12;;;;;;;4.00;3.60;;;19.30;97.10;;;;;;5069293;28;20096;-51
2021/10/03 02:41:38;;;;;;;3.78;3.25;;;19.20;97.00;;;;;;5069586;28;20443;-49
2021/10/03 02:44:05;;;;;;;3.60;3.15;;;19.30;97.00;;;;;;5069738;28;20040;-49
2021/10/03 02:46:32;;;;;;;3.78;3.25;;;19.20;97.10;;;;;;5069816;28;20021;-52
2021/10/03 02:48:58;;;;;;;3.70;3.40;;;19.20;97.30;;;;;;5071224;28;20389;-50
2021/10/03 02:51:27;;;;;;;3.60;3.03;;;19.10;97.10;;;;;;5073411;28;20028;-51
2021/10/03 02:53:54;;;;;;;3.58;3.20;;;19.10;97.40;;;;;;5073254;28;20078;-51
2021/10/03 02:56:23;;;;;;;4.00;3.25;;;19.10;97.30;;;;;;5073297;28;20052;-51
2021/10/03 02:58:49;;;;;;;3.65;3.35;;;19.10;97.20;;;;;;5054408;28;20103;-50
2021/10/03 03:01:16;;;;;;;4.13;3.42;;;19.10;97.10;;;;;;5073060;28;20457;-51
2021/10/03 03:03:42;;;;;;;5.05;3.90;;;19.10;97.30;;;;;;5073272;28;20606;-48
2021/10/03 03:06:08;;;;;;;3.53;3.22;;;19.10;97.10;;;;;;5073131;28;20016;-51
2021/10/03 03:08:34;;;;;;;3.97;3.63;;;19.10;97.10;;;;;;5054589;28;20017;-49
2021/10/03 03:11:00;;;;;;;4.00;3.60;;;19.10;97.30;;;;;;5073383;28;20470;-52
2021/10/03 03:13:26;;;;;;;3.95;3.65;;;19.10;97.20;;;;;;5072870;28;20054;-51
2021/10/03 03:15:52;;;;;;;7.80;3.72;;;19.00;97.40;;;;;;5072953;28;20032;-51
2021/10/03 03:18:18;;;;;;;5.43;3.58;;;19.00;97.50;;;;;;5072210;28;20033;-53
2021/10/03 03:20:44;;;;;;;5.75;3.65;;;19.00;97.50;;;;;;5053831;28;20405;-48
2021/10/03 03:23:09;;;;;;;4.50;3.78;;;18.90;97.60;;;;;;5072659;28;20039;-48
2021/10/03 03:25:35;;;;;;;4.40;3.60;;;19.00;97.50;;;;;;5072666;28;20551;-48
2021/10/03 03:28:02;;;;;;;6.47;3.33;;;19.00;97.60;;;;;;5071927;28;20032;-48
2021/10/03 03:30:28;;;;;;;3.53;3.30;;;18.90;97.70;;;;;;5072657;28;20478;-51
2021/10/03 03:32:53;;;;;;;4.20;3.90;;;18.90;97.70;;;;;;5072856;28;20048;-50
2021/10/03 03:35:19;;;;;;;4.57;3.67;;;18.90;97.80;;;;;;5072638;28;20028;-53
2021/10/03 03:37:44;;;;;;;4.72;3.35;;;18.90;97.90;;;;;;5053829;28;20066;-51
2021/10/03 03:40:14;;;;;;;4.57;3.88;;;18.90;97.80;;;;;;5072545;28;20032;-48
2021/10/03 03:42:40;;;;;;;5.95;3.85;;;18.80;97.80;;;;;;5072224;28;20079;-48
2021/10/03 03:45:07;;;;;;;4.57;3.53;;;18.80;98.00;;;;;;5072375;28;20424;-49
2021/10/03 03:47:32;;;;;;;4.30;3.90;;;18.80;98.10;;;;;;5071588;28;20036;-51
2021/10/03 03:49:58;;;;;;;5.13;3.60;;;18.70;98.00;;;;;;5072158;28;20271;-48
2021/10/03 03:52:24;;;;;;;4.10;3.78;;;18.70;97.90;;;;;;5054541;28;20060;-50
2021/10/03 03:54:49;;;;;;;4.93;3.90;;;18.70;98.00;;;;;;5054304;28;20547;-50
2021/10/03 03:57:15;;;;;;;4.65;3.63;;;18.70;98.00;;;;;;5053829;28;20515;-54
2021/10/03 03:59:40;;;;;;;3.92;3.53;;;18.70;97.90;;;;;;5070836;28;20029;-48
2021/10/03 04:02:06;;;;;;;4.45;4.03;;;18.70;98.00;;;;;;5054121;28;20115;-49
2021/10/03 04:04:31;;;;;;;4.28;3.42;;;18.70;98.00;;;;;;5072282;28;20024;-52
2021/10/03 04:06:57;;;;;;;4.28;3.72;;;18.80;97.90;;;;;;5072019;28;20024;-51
2021/10/03 04:09:22;;;;;;;4.88;4.13;;;18.70;98.00;;;;;;5053321;28;20024;-50
2021/10/03 04:11:48;;;;;;;6.45;3.67;;;18.70;98.00;;;;;;5053913;28;20028;-51
2021/10/03 04:14:13;;;;;;;5.30;3.53;;;18.70;97.80;;;;;;5071805;28;20039;-52
2021/10/03 04:16:39;;;;;;;3.78;3.47;;;18.80;97.70;;;;;;5071836;28;20032;-53
2021/10/03 04:19:04;;;;;;;3.53;3.28;;;18.80;97.70;;;;;;5070900;28;20032;-47
2021/10/03 04:21:30;;;;;;;6.63;3.50;;;18.80;97.80;;;;;;5071084;28;20024;-50
2021/10/03 04:23:56;;;;;;;3.33;3.03;;;18.80;97.50;;;;;;5071995;28;20024;-50
2021/10/03 04:26:22;;;;;;;3.85;3.10;;;18.90;97.40;;;;;;5071786;28;20024;-51
2021/10/03 04:28:48;;;;;;;5.90;3.05;;;18.90;97.40;;;;;;5070665;28;20133;-54
2021/10/03 04:31:13;;;;;;;4.78;3.53;;;18.80;97.50;;;;;;5053710;28;20025;-50
2021/10/03 04:33:41;;;;;;;3.95;3.40;;;18.90;97.20;;;;;;5071346;28;20032;-52
2021/10/03 04:36:08;;;;;;;4.55;3.13;;;18.90;97.40;;;;;;5071514;28;20048;-48
2021/10/03 04:38:34;;;;;;;3.42;3.10;;;18.80;97.30;;;;;;5072226;28;20025;-55
2021/10/03 04:40:59;;;;;;;4.38;3.55;;;18.80;97.20;;;;;;5063271;28;20021;-52
2021/10/03 04:43:25;;;;;;;6.53;3.60;;;18.90;97.20;;;;;;5079386;28;20040;-64
2021/10/03 04:45:51;;;;;;;3.88;3.28;;;18.90;97.20;;;;;;5083542;28;20095;-56
2021/10/03 04:48:16;;;;;;;4.70;3.40;;;18.90;97.30;;;;;;5073399;28;20021;-49
2021/10/03 04:50:42;;;;;;;4.70;3.72;;;18.90;97.30;;;;;;5071368;28;20024;-49
2021/10/03 04:53:08;;;;;;;4.68;3.80;;;18.80;97.40;;;;;;5071264;28;20385;-52
2021/10/03 04:55:33;;;;;;;6.28;3.92;;;18.80;97.50;;;;;;5071314;28;20028;-49
2021/10/03 04:57:59;;;;;;;4.40;3.88;;;18.70;97.50;;;;;;5070559;28;20029;-46
2021/10/03 05:00:24;;;;;;;6.30;3.53;;;18.80;97.40;;;;;;5071359;28;20033;-54
2021/10/03 05:02:50;;;;;;;5.38;4.43;;;18.70;97.60;;;;;;5071126;28;20111;-48
2021/10/03 05:05:16;;;;;;;3.83;3.42;;;18.70;97.50;;;;;;5071282;28;20050;-51
2021/10/03 05:07:41;;;;;;;4.63;3.42;;;18.60;97.60;;;;;;5070521;28;20029;-51
2021/10/03 05:10:07;;;;;;;4.10;3.67;;;18.60;97.60;;;;;;5071113;28;20058;-50
2021/10/03 05:12:33;;;;;;;3.97;3.42;;;18.70;97.60;;;;;;5070358;28;20466;-50
2021/10/03 05:14:59;;;;;;;4.43;3.63;;;18.60;97.60;;;;;;5070796;28;20024;-53
2021/10/03 05:17:24;;;;;;;4.28;3.88;;;18.60;97.60;;;;;;5070108;28;20028;-48
2021/10/03 05:19:50;;;;;;;6.15;4.25;;;18.60;97.70;;;;;;5069802;28;20393;-49
2021/10/03 05:22:15;;;;;;;4.40;3.78;;;18.60;97.60;;;;;;5070662;28;20111;-49
2021/10/03 05:24:41;;;;;;;4.15;3.20;;;18.60;97.60;;;;;;5052573;28;20024;-53
2021/10/03 05:27:06;;;;;;;6.35;3.55;;;18.60;97.70;;;;;;5070406;28;20028;-52
2021/10/03 05:29:32;;;;;;;4.30;3.55;;;18.60;97.60;;;;;;5069881;28;20027;-48
2021/10/03 05:31:57;;;;;;;3.92;3.63;;;18.60;97.60;;;;;;5070618;28;20038;-50
2021/10/03 05:34:23;;;;;;;3.58;3.28;;;18.60;97.60;;;;;;5070560;28;20016;-50
2021/10/03 05:36:49;;;;;;;4.82;3.42;;;18.60;97.60;;;;;;5070321;28;20095;-54
2021/10/03 05:39:14;;;;;;;3.85;3.25;;;18.60;97.70;;;;;;5069541;28;20119;-53
2021/10/03 05:41:40;;;;;;;8.60;4.40;;;18.60;97.70;;;;;;5070064;28;20024;-50
2021/10/03 05:44:05;;;;;;;7.22;4.13;;;18.60;97.80;;;;;;5100553;22;20050;-48
2021/10/03 05:46:32;;;;;;;4.25;3.83;;;18.60;97.80;;;;;;5090416;28;20081;-49
2021/10/03 05:48:58;;;;;;;5.50;3.55;;;18.60;97.90;;;;;;5090119;28;20026;-49
2021/10/03 05:51:24;;;;;;;5.28;3.90;;;18.60;98.40;;;;;;5090442;28;20107;-49
2021/10/03 05:53:49;;;;;;;3.15;2.95;;;18.60;98.10;;;;;;5090481;28;20158;-50
2021/10/03 05:56:15;;;;;;;3.45;3.15;;;18.60;98.80;;;;;;5090436;28;20111;-47
2021/10/03 05:58:40;;;;;;;3.58;3.28;;;18.50;98.60;;;;;;5089583;28;20031;-48
2021/10/03 06:01:06;;;;;;;5.05;3.40;;;18.40;99.10;;;;;;5090566;28;20059;-48
2021/10/03 06:03:31;;;;;;;4.20;3.45;;;18.40;99.60;;;;;;5090152;28;20105;-50
2021/10/03 06:05:57;;;;;;;5.00;3.97;;;18.40;99.70;;;;;;5090374;28;20522;-48
2021/10/03 06:08:22;;;;;;;4.00;3.60;;;18.30;99.90;;;;;;5089602;28;20074;-49
2021/10/03 06:10:48;;;;;;;4.28;3.63;;;18.30;99.90;;;;;;5090269;28;20073;-50
2021/10/03 06:13:13;;;;;;;5.35;3.47;;;18.20;99.90;;;;;;5089974;28;20065;-50
2021/10/03 06:15:42;;;;;;;3.60;3.30;;;18.20;99.90;;;;;;5090384;28;20055;-50
2021/10/03 06:18:09;;;;;;;5.97;3.65;;;18.20;99.90;;;;;;5089697;28;20080;-49
2021/10/03 06:20:35;;;;;;;4.15;3.72;;;18.20;99.90;;;;;;5089156;28;20043;-49
2021/10/03 06:23:00;;;;;;;4.55;3.60;;;18.20;99.90;;;;;;5090123;28;20401;-49
2021/10/03 06:25:26;;;;;;;3.55;3.25;;;18.10;99.90;;;;;;5087249;28;20109;-50
2021/10/03 06:27:51;;;;;;;6.88;3.83;;;18.10;99.90;;;;;;5074662;28;20129;-49
2021/10/03 06:30:17;;;;;;;5.65;3.25;;;18.10;99.90;;;;;;5090038;28;20036;-55
2021/10/03 06:32:43;;;;;;;4.50;3.38;;;18.10;99.90;;;;;;5065938;28;20051;-49
2021/10/03 06:35:09;;;;;;;3.90;3.50;;;18.10;99.90;;;;;;5093791;28;20028;-46
2021/10/03 06:37:34;;;;;;;3.85;3.40;;;18.10;99.90;;;;;;5093326;28;20481;-42
2021/10/03 06:40:00;;;;;;;4.07;3.40;;;18.10;99.90;;;;;;5093369;28;20024;-46
2021/10/03 06:42:25;;;;;;;3.75;3.42;;;18.10;99.90;;;;;;5093733;28;20101;-44
2021/10/03 06:44:51;;;;;;;4.10;3.70;;;18.10;99.90;;;;;;5093923;28;20020;-45
2021/10/03 06:47:16;;;;;;;4.13;3.78;;;18.10;99.90;;;;;;5093181;28;20107;-43
2021/10/03 06:49:42;;;;;;;3.92;3.33;;;18.10;99.90;;;;;;5094154;28;20054;-44
2021/10/03 06:52:09;;;;;;;5.32;4.03;;;18.10;99.90;;;;;;5093640;28;20560;-45
2021/10/03 06:54:35;;;;;;;10.95;4.00;;;18.10;99.90;;;;;;5093738;28;20043;-43
2021/10/03 06:57:01;;;;;;;6.15;4.05;;;18.10;99.90;;;;;;5093462;28;20020;-44
2021/10/03 06:59:26;;;;;;;4.90;3.85;;;18.10;99.90;;;;;;5074410;28;20024;-44
2021/10/03 07:01:53;;;;;;;3.95;3.55;;;18.10;99.90;;;;;;5093333;28;20032;-43
2021/10/03 07:04:19;;;;;;;6.38;3.85;;;18.10;99.90;;;;;;5093360;28;20030;-43
2021/10/03 07:06:44;;;;;;;5.53;3.67;;;18.10;99.90;;;;;;5093731;28;20517;-43
2021/10/03 07:09:10;;;;;;;3.83;3.35;;;18.10;99.90;;;;;;5092538;28;20473;-45
2021/10/03 07:11:35;;;;;;;4.03;3.63;;;18.20;99.50;;;;;;5093184;28;20016;-45
2021/10/03 07:14:01;;;;;;;5.70;3.63;;;18.20;99.20;;;;;;5093457;28;20032;-42
2021/10/03 07:16:26;;;;;;;4.10;3.70;;;18.30;99.90;;;;;;5075262;28;20016;-43
2021/10/03 07:18:52;;;;;;;5.85;3.88;;;18.30;99.70;;;;;;5092403;28;20104;-43
2021/10/03 07:21:17;;;;;;;4.20;3.53;;;18.40;99.70;;;;;;5074723;28;20027;-45
2021/10/03 07:23:43;;;;;;;9.05;4.22;;;18.40;99.40;;;;;;5092608;28;20485;-44
2021/10/03 07:26:08;;;;;;;6.20;3.83;;;18.40;99.70;;;;;;5093293;28;20024;-44
2021/10/03 07:28:34;;;;;;;5.38;3.92;;;18.40;99.50;;;;;;5092418;28;20023;-43
2021/10/03 07:31:01;;;;;;;3.65;3.30;;;18.40;99.50;;;;;;5092979;28;20432;-43
2021/10/03 07:33:26;;;;;;;4.78;3.78;;;18.40;99.20;;;;;;5092617;28;20020;-44
2021/10/03 07:35:52;;;;;;;3.75;3.45;;;18.50;99.00;;;;;;5092663;28;20568;-45
2021/10/03 07:38:17;;;;;;;4.85;4.05;;;18.50;99.40;;;;;;5073854;28;20118;-44
2021/10/03 07:40:43;;;;;;;4.07;3.58;;;18.50;99.20;;;;;;5092632;28;20024;-45
2021/10/03 07:43:10;;;;;;;10.07;4.60;;;18.50;98.90;;;;;;5091187;28;20056;-43
2021/10/03 07:45:35;;;;;;;6.85;3.97;;;18.50;98.90;;;;;;5092434;28;20572;-45
2021/10/03 07:48:01;;;;;;;4.15;3.75;;;18.50;98.90;;;;;;5091866;28;20099;-45
2021/10/03 07:50:27;;;;;;;5.72;3.70;;;18.60;99.00;;;;;;5092356;28;20016;-43
2021/10/03 07:52:52;;;;;;;4.43;3.92;;;18.50;99.90;;;;;;5092434;28;20028;-44
2021/10/03 07:55:18;;;;;;;4.72;4.10;;;18.40;99.90;;;;;;5092671;28;20020;-44
2021/10/03 07:57:43;;;;;;;6.60;3.83;;;18.30;99.90;;;;;;5092061;28;20128;-45
2021/10/03 08:00:10;;;;;;;4.28;3.88;;;18.30;99.90;;;;;;5092505;28;20032;-44
2021/10/03 08:02:36;;;;;;;5.97;4.07;;;18.30;99.90;;;;;;5071614;28;20031;-43
2021/10/03 08:05:02;;;;;;;4.15;3.75;;;18.30;99.90;;;;;;5062985;28;20020;-42
2021/10/03 08:07:28;;;;;;;5.78;3.78;;;18.40;99.90;;;;;;5091500;28;20020;-41
2021/10/03 08:09:55;;;;;;;4.30;3.88;;;18.30;99.90;;;;;;5079721;28;20024;-41
2021/10/03 08:12:21;;;;;;;6.93;3.95;;;18.30;99.90;;;;;;5076766;28;20256;-42
2021/10/03 08:14:46;;;;;;;5.03;3.83;;;18.20;99.90;;;;;;5063126;28;20127;-42
2021/10/03 08:17:12;;;;;;;6.65;4.32;;;18.20;99.90;;;;;;5081043;28;20028;-42
2021/10/03 08:19:37;;;;;;;8.18;4.90;;;18.20;99.90;;;;;;5082910;28;20100;-42
2021/10/03 08:22:03;;;;;;;4.07;3.58;;;18.30;99.90;;;;;;5085127;28;20452;-43
2021/10/03 08:24:31;;;;;;;5.10;4.40;;;18.30;99.90;;;;;;5072938;28;20024;-43
2021/10/03 08:26:56;;;;;;;5.20;4.05;;;18.30;99.90;;;;;;5070750;28;20027;-41
2021/10/03 08:29:22;;;;;;;7.10;3.70;;;18.30;99.90;;;;;;5078885;28;20020;-42
2021/10/03 08:31:49;;;;;;;5.18;4.22;;;18.40;99.90;;;;;;5091138;28;20039;-41
2021/10/03 08:34:15;;;;;;;7.47;4.45;;;18.40;99.90;;;;;;5062453;28;20032;-41
2021/10/03 08:36:40;;;;;;;8.18;4.90;;;18.40;99.90;;;;;;5087606;28;20054;-41
2021/10/03 08:39:06;;;;;;;6.10;3.97;;;18.50;99.90;;;;;;5062621;28;20086;-43
2021/10/03 08:41:32;;;;;;;6.43;4.20;;;18.50;99.90;;;;;;5054309;28;20029;-42
2021/10/03 08:43:57;;;;;;;5.57;4.20;;;18.50;99.90;;;;;;5071976;28;20075;-41
2021/10/03 08:46:25;;;;;;;4.80;4.32;;;18.50;99.90;;;;;;5081870;28;20025;-47
2021/10/03 08:48:51;;;;;;;5.13;3.92;;;18.50;99.90;;;;;;5070583;28;20016;-49
2021/10/03 08:51:17;;;;;;;8.05;4.43;;;18.50;99.90;;;;;;5080913;28;20048;-42
2021/10/03 08:53:43;;;;;;;10.07;5.45;;;18.40;99.90;;;;;;5081689;28;20063;-45
2021/10/03 08:56:08;;;;;;;16.85;13.13;;;18.40;99.90;;;;;;5080019;28;20039;-43
2021/10/03 08:58:34;;;;;;;9.02;7.70;;;18.40;99.90;;;;;;5075608;28;20024;-43
2021/10/03 09:00:59;;;;;;;39.85;26.80;;;18.40;99.90;;;;;;5070946;28;20513;-41
2021/10/03 09:03:25;;;;;;;8.13;6.63;;;18.30;99.90;;;;;;5072155;28;20055;-43
2021/10/03 09:05:54;;;;;;;6.03;4.53;;;18.30;99.90;;;;;;5071851;28;20470;-43
2021/10/03 09:08:26;;;;;;;5.88;5.00;;;18.30;99.90;;;;;;5071652;28;20762;-43
2021/10/03 09:10:59;;;;;;;5.32;4.35;;;18.30;99.90;;;;;;5080441;28;20485;-42
2021/10/03 09:13:30;;;;;;;4.65;3.55;;;18.30;99.90;;;;;;5091098;28;20028;-43
2021/10/03 09:16:11;;;;;;;5.93;4.40;;;18.20;99.90;;;;;;5072880;28;20024;-43
2021/10/03 09:18:44;;;;;;;4.13;3.50;;;18.30;99.90;;;;;;5070090;28;20028;-45
2021/10/03 09:21:12;;;;;;;5.55;4.70;;;18.30;99.90;;;;;;5079972;28;20398;-42
2021/10/03 09:23:39;;;;;;;5.00;4.55;;;18.30;99.90;;;;;;5082732;28;20085;-42
2021/10/03 09:26:11;;;;;;;6.05;4.25;;;18.30;99.90;;;;;;5085265;28;20578;-42
2021/10/03 09:28:37;;;;;;;4.53;4.10;;;18.40;99.90;;;;;;5082666;28;20012;-50
2021/10/03 09:31:06;;;;;;;4.70;4.20;;;18.40;99.90;;;;;;5071212;28;20033;-44
2021/10/03 09:33:48;;;;;;;7.38;4.13;;;18.40;99.90;;;;;;5081131;28;20181;-42
2021/10/03 09:36:18;;;;;;;5.05;4.55;;;18.40;99.90;;;;;;5090510;28;20028;-42
2021/10/03 09:38:47;;;;;;;6.90;5.32;;;18.50;99.90;;;;;;5085536;28;20028;-42
2021/10/03 09:41:14;;;;;;;5.40;4.65;;;18.50;99.90;;;;;;5055448;28;20028;-42
2021/10/03 09:43:46;;;;;;;5.45;4.93;;;18.60;99.90;;;;;;5074008;28;20110;-44
2021/10/03 09:46:29;;;;;;;8.32;4.72;;;18.60;99.90;;;;;;5091306;28;20020;-43
2021/10/03 09:48:55;;;;;;;6.07;4.28;;;18.50;99.90;;;;;;5082172;28;20497;-46
2021/10/03 09:51:22;;;;;;;9.32;4.55;;;18.60;99.90;;;;;;5071325;28;20036;-42
2021/10/03 09:53:47;;;;;;;7.57;5.22;;;18.70;99.90;;;;;;5052034;28;20029;-41
2021/10/03 09:56:13;;;;;;;4.68;3.90;;;18.70;99.90;;;;;;5072083;28;20096;-50
2021/10/03 09:58:40;;;;;;;6.82;4.68;;;18.70;99.90;;;;;;5071087;28;20486;-43
2021/10/03 10:01:07;;;;;;;4.45;4.05;;;18.80;99.90;;;;;;5075356;28;20555;-43
2021/10/03 10:03:35;;;;;;;10.43;4.80;;;18.80;99.90;;;;;;5077645;28;20035;-44
2021/10/03 10:06:01;;;;;;;6.00;5.13;;;18.90;99.90;;;;;;5081691;28;20021;-46
2021/10/03 10:08:27;;;;;;;5.75;4.38;;;19.00;99.90;;;;;;5073428;28;20644;-43
2021/10/03 10:11:00;;;;;;;8.20;4.25;;;18.90;99.90;;;;;;5093137;28;20024;-45
2021/10/03 10:13:27;;;;;;;13.63;11.98;;;18.90;99.90;;;;;;5094075;28;20068;-44
2021/10/03 10:15:52;;;;;;;10.70;8.13;;;19.00;99.90;;;;;;5093305;28;20087;-47
2021/10/03 10:18:25;;;;;;;8.77;6.30;;;19.00;99.90;;;;;;5074678;28;20165;-45
2021/10/03 10:20:53;;;;;;;7.68;4.63;;;19.10;99.90;;;;;;5087169;28;20035;-43
2021/10/03 10:23:25;;;;;;;5.65;4.57;;;19.20;99.90;;;;;;5073623;28;20109;-44
2021/10/03 10:25:54;;;;;;;5.05;4.10;;;19.30;99.90;;;;;;5073559;28;20024;-43
2021/10/03 10:28:33;;;;;;;4.18;3.78;;;19.20;99.90;;;;;;5085763;28;20521;-44
2021/10/03 10:31:19;;;;;;;6.20;4.22;;;19.30;99.90;;;;;;5055629;28;20021;-45
2021/10/03 10:33:51;;;;;;;4.95;4.00;;;19.30;99.90;;;;;;5073325;28;20166;-44
2021/10/03 10:36:17;;;;;;;5.70;3.88;;;19.30;99.90;;;;;;5073524;28;20028;-47
2021/10/03 10:39:09;;;;;;;5.47;4.40;;;19.30;99.90;;;;;;5087467;28;20032;-49
2021/10/03 10:41:40;;;;;;;5.93;4.10;;;19.30;99.90;;;;;;5080802;28;20035;-45
2021/10/03 10:44:24;;;;;;;4.68;3.95;;;19.40;99.90;;;;;;5084846;28;20025;-43
2021/10/03 10:46:51;;;;;;;6.57;4.68;;;19.40;99.90;;;;;;5073351;28;20126;-45
2021/10/03 10:49:35;;;;;;;12.63;5.05;;;19.40;99.90;;;;;;5072721;28;20020;-47
2021/10/03 10:52:18;;;;;;;5.22;4.65;;;19.50;99.90;;;;;;5073381;28;20029;-46
2021/10/03 10:54:59;;;;;;;9.02;4.38;;;19.50;99.90;;;;;;5076233;28;20028;-44
2021/10/03 10:57:26;;;;;;;8.60;4.70;;;19.50;99.90;;;;;;5081947;28;20512;-42
2021/10/03 11:00:26;;;;;;;6.20;3.85;;;19.60;99.90;;;;;;5093160;28;20036;-44
2021/10/03 11:02:54;;;;;;;10.45;3.90;;;19.70;99.90;;;;;;5072735;28;20021;-47
2021/10/03 11:05:36;;;;;;;5.78;3.95;;;19.70;99.90;;;;;;5072968;28;20051;-44
2021/10/03 11:08:04;;;;;;;7.70;4.22;;;19.70;99.90;;;;;;5072157;28;20027;-47
2021/10/03 11:10:30;;;;;;;6.43;3.88;;;19.70;99.90;;;;;;5072346;28;20134;-45
2021/10/03 11:12:55;;;;;;;5.57;4.10;;;19.80;99.90;;;;;;5076198;28;20016;-45
2021/10/03 11:15:24;;;;;;;5.72;4.60;;;19.80;99.90;;;;;;5092861;28;20058;-46
2021/10/03 11:17:50;;;;;;;6.68;3.80;;;19.80;99.90;;;;;;5092355;28;20043;-44
2021/10/03 11:20:16;;;;;;;4.18;3.78;;;19.80;99.90;;;;;;5093051;28;20365;-45
2021/10/03 11:22:41;;;;;;;6.53;3.97;;;19.80;99.90;;;;;;5092786;28;20028;-43
2021/10/03 11:25:15;;;;;;;6.57;4.05;;;19.80;99.90;;;;;;5092946;28;20028;-45
2021/10/03 11:27:40;;;;;;;7.00;3.80;;;19.80;99.90;;;;;;5091946;28;20040;-46
2021/10/03 11:30:06;;;;;;;4.65;3.45;;;19.70;99.90;;;;;;5093006;28;20092;-45
2021/10/03 11:32:37;;;;;;;5.55;4.18;;;19.70;99.90;;;;;;5093035;28;20032;-45
2021/10/03 11:35:06;;;;;;;4.82;4.07;;;19.70;99.90;;;;;;5089997;28;20381;-48
2021/10/03 11:37:51;;;;;;;8.05;4.60;;;19.70;99.90;;;;;;5091735;28;20027;-52
2021/10/03 11:40:23;;;;;;;5.93;4.30;;;19.70;99.90;;;;;;5092699;28;20569;-47
2021/10/03 11:45:20;;;;;;;6.13;4.35;;;19.70;99.90;;;;;;5050826;28;20056;-49
2021/10/03 11:47:52;;;;;;;3.97;3.58;;;19.70;99.90;;;;;;5033738;28;20102;-50
2021/10/03 11:50:26;;;;;;;5.30;3.75;;;19.80;99.90;;;;;;5052265;28;20017;-50
2021/10/03 11:52:56;;;;;;;3.73;3.30;;;19.90;99.90;;;;;;5052255;28;20036;-48
2021/10/03 11:55:33;;;;;;;5.50;3.40;;;20.00;99.90;;;;;;5034110;28;20358;-51
2021/10/03 11:58:06;;;;;;;6.40;4.80;;;20.10;99.70;;;;;;5033465;28;20021;-46
2021/10/03 12:00:33;;;;;;;6.32;3.33;;;20.30;99.10;;;;;;5033946;28;20033;-52
2021/10/03 12:03:07;;;;;;;5.53;3.22;;;20.50;98.80;;;;;;5051474;28;20175;-50
2021/10/03 12:05:33;;;;;;;3.53;2.45;;;20.50;97.90;;;;;;5050588;28;20644;-47
2021/10/03 12:08:19;;;;;;;3.10;2.80;;;20.70;97.80;;;;;;5032817;28;20031;-48
2021/10/03 12:11:02;;;;;;;2.80;2.60;;;20.80;97.80;;;;;;5052053;28;20029;-50
2021/10/03 12:13:33;;;;;;;2.00;1.90;;;21.00;97.30;;;;;;5033618;28;20052;-46
2021/10/03 12:16:02;;;;;;;2.75;2.20;;;21.10;96.80;;;;;;5033768;28;20025;-43
2021/10/03 12:18:30;;;;;;;2.50;2.28;;;21.20;96.70;;;;;;5051308;28;20032;-45
2021/10/03 12:21:16;;;;;;;3.97;2.13;;;21.30;96.20;;;;;;5051190;28;20033;-50
2021/10/03 12:23:42;;;;;;;2.97;2.13;;;21.30;96.30;;;;;;5051440;28;20028;-52
2021/10/03 12:26:15;;;;;;;2.17;2.05;;;21.40;95.60;;;;;;5051888;28;20025;-46
2021/10/03 12:28:55;;;;;;;2.10;2.00;;;21.60;95.30;;;;;;5033268;28;20033;-49
2021/10/03 12:31:45;;;;;;;2.45;2.13;;;21.80;94.90;;;;;;5051321;28;20032;-48
2021/10/03 12:34:13;;;;;;;2.30;2.10;;;21.90;94.70;;;;;;5051887;28;20409;-48
2021/10/03 12:36:48;;;;;;;3.42;2.08;;;22.10;93.80;;;;;;5053014;28;20633;-48
2021/10/03 12:39:14;;;;;;;;;;;22.10;93.10;;;;;;5033603;28;20676;-51
2021/10/03 12:41:39;;;;;;;2.10;2.00;;;22.10;93.10;;;;;;5051909;28;19908;-52
2021/10/03 12:44:05;;;;;;;2.08;1.98;;;22.20;93.40;;;;;;5050932;28;20033;-50
2021/10/03 12:46:30;;;;;;;2.03;1.85;;;22.30;93.20;;;;;;5051003;28;20037;-51
2021/10/03 12:48:56;;;;;;;3.45;2.03;;;22.30;93.00;;;;;;5050405;28;20475;-45
2021/10/03 12:51:21;;;;;;;4.45;2.97;;;22.40;92.80;;;;;;5051176;28;20111;-47